Time;durP1;ratioP1;P1;durP2;ratioP2;P2;SDS_P1;SDS_P2;PMS_P1;PMS_P2;Temp;Humidity;BMP_temperature;BMP_pressure;BME280_temperature;BME280_humidity;BME280_pressure;Samples;Min_cycle;Max_cycle;Signal;HPM_P1;HPM_P2
2021/07/19 00:00:19;;;;;;;;;27.00;26.33;;;;;22.00;81.19;99041.41;3192926;41;3600263;-58
2021/07/19 00:02:47;;;;;;;;;24.00;23.00;;;;;22.16;80.65;99045.88;3198154;41;3579364;-58
2021/07/19 00:05:16;;;;;;;;;32.67;28.67;;;;;21.97;81.47;99041.78;3187543;41;3601274;-58
2021/07/19 00:07:44;;;;;;;;;27.00;25.33;;;;;22.01;81.06;99041.25;3194018;41;3598121;-58
2021/07/19 00:10:15;;;;;;;;;26.33;25.67;;;;;21.85;81.82;99038.63;3196252;41;3588770;-57
2021/07/19 00:12:45;;;;;;;;;24.00;23.33;;;;;21.94;81.42;99034.81;3191819;41;3585625;-58
2021/07/19 00:15:25;;;;;;;;;26.33;25.00;;;;;21.95;81.17;99030.19;3198809;41;3591906;-58
2021/07/19 00:17:56;;;;;;;;;26.33;25.33;;;;;21.91;81.77;99032.44;3196039;41;3573130;-58
2021/07/19 00:20:25;;;;;;;;;25.67;25.67;;;;;21.84;82.70;99026.00;3184296;41;3582466;-58
2021/07/19 00:22:53;;;;;;;;;34.00;26.67;;;;;21.74;82.62;99025.38;3187579;41;3611658;-58
2021/07/19 00:25:21;;;;;;;;;25.67;25.67;;;;;21.83;82.02;99022.44;3196016;41;3597357;-58
2021/07/19 00:27:53;;;;;;;;;25.67;24.67;;;;;21.97;81.45;99018.03;3193740;41;3595003;-58
2021/07/19 00:30:24;;;;;;;;;28.33;25.33;;;;;21.86;81.83;99007.53;3196174;41;3586667;-58
2021/07/19 00:32:52;;;;;;;;;32.00;29.67;;;;;21.86;81.87;99013.84;3198162;41;3596058;-58
2021/07/19 00:35:20;;;;;;;;;27.67;24.00;;;;;21.85;82.25;99000.34;3195949;41;3595037;-58
2021/07/19 00:37:49;;;;;;;;;24.33;22.00;;;;;21.77;82.94;99000.44;3192995;41;2842029;-58
2021/07/19 00:40:23;;;;;;;;;30.67;27.67;;;;;21.48;84.55;98999.28;3212557;41;3598117;-58
2021/07/19 00:42:51;;;;;;;;;25.33;25.33;;;;;21.73;82.19;98996.38;3196156;41;3593970;-59
2021/07/19 00:45:26;;;;;;;;;25.67;24.00;;;;;21.88;81.86;99005.44;3195961;41;3589803;-58
2021/07/19 00:47:57;;;;;;;;;25.00;23.00;;;;;21.63;83.37;99007.53;3192798;41;3588740;-58
2021/07/19 00:50:29;;;;;;;;;27.67;26.33;;;;;21.66;82.68;99002.56;3195322;41;3602310;-57
2021/07/19 00:53:00;;;;;;;;;31.33;27.67;;;;;21.82;82.16;99008.94;3193344;41;3592924;-58
2021/07/19 00:55:38;;;;;;;;;24.67;22.00;;;;;21.83;82.25;99008.75;3195895;41;3575287;-58
2021/07/19 00:58:09;;;;;;;;;29.00;27.00;;;;;21.70;82.72;99003.91;3196511;41;3577284;-58
2021/07/19 01:00:45;;;;;;;;;27.67;27.33;;;;;21.73;83.11;99001.84;3199465;41;3591863;-58
2021/07/19 01:03:14;;;;;;;;;28.00;27.25;;;;;21.65;83.06;99006.34;3187163;41;3602287;-58
2021/07/19 01:05:45;;;;;;;;;28.67;26.33;;;;;21.75;82.84;99010.69;3200129;41;3590821;-58
2021/07/19 01:08:13;;;;;;;;;30.67;27.67;;;;;21.81;82.72;98996.31;3213170;41;3596033;-58
2021/07/19 01:10:41;;;;;;;;;25.67;25.67;;;;;21.64;83.46;98999.19;3196272;41;3593545;-58
2021/07/19 01:13:10;;;;;;;;;27.00;24.33;;;;;21.62;83.16;99005.84;3196049;41;3592921;-58
2021/07/19 01:15:39;;;;;;;;;30.75;26.00;;;;;21.59;83.36;99004.34;3196781;41;3600327;-58
2021/07/19 01:18:15;;;;;;;;;31.00;28.33;;;;;21.76;82.89;99001.47;3212114;41;3606426;-59
2021/07/19 01:21:02;;;;;;;;;28.67;26.00;;;;;21.65;82.78;99002.75;3181716;41;3592910;-58
2021/07/19 01:23:45;;;;;;;;;36.00;31.67;;;;;21.63;83.57;98997.47;3211440;41;3602327;-58
2021/07/19 01:27:07;;;;;;;;;28.00;27.00;;;;;21.45;85.02;98994.19;3193075;41;3606793;-58
2021/07/19 01:29:38;;;;;;;;;32.00;28.33;;;;;21.57;83.73;98997.34;3194061;41;3580477;-58
2021/07/19 01:32:08;;;;;;;;;27.33;27.33;;;;;21.62;83.67;98989.47;3187104;41;3604383;-58
2021/07/19 01:34:40;;;;;;;;;27.67;24.67;;;;;21.59;84.01;99001.59;3186596;41;3584639;-58
2021/07/19 01:37:09;;;;;;;;;31.00;28.33;;;;;21.50;84.45;99002.69;3186358;41;3575208;-59
2021/07/19 01:39:38;;;;;;;;;28.67;28.00;;;;;21.30;85.25;99012.34;3187019;41;3590897;-57
2021/07/19 01:42:07;;;;;;;;;31.67;29.33;;;;;21.17;86.66;99012.91;3186854;41;3596033;-59
2021/07/19 01:44:37;;;;;;;;;29.67;29.67;;;;;21.31;85.25;99023.09;3185345;41;3590841;-58
2021/07/19 01:47:08;;;;;;;;;26.33;26.33;;;;;21.46;84.71;99026.78;3191917;41;3593228;-58
2021/07/19 01:49:38;;;;;;;;;27.00;26.33;;;;;21.45;84.15;99019.59;3194739;41;3600193;-58
2021/07/19 01:52:08;;;;;;;;;31.00;27.67;;;;;21.63;82.93;99019.31;3183089;41;3590837;-59
2021/07/19 01:54:39;;;;;;;;;26.67;25.00;;;;;21.65;83.34;99010.94;3195391;41;3591878;-58
2021/07/19 01:57:09;;;;;;;;;32.33;28.67;;;;;21.61;83.63;99006.88;3185652;41;3586662;-58
2021/07/19 01:59:38;;;;;;;;;27.67;26.00;;;;;21.67;83.37;99007.00;3193764;41;3600201;-58
2021/07/19 02:02:07;;;;;;;;;28.00;26.67;;;;;21.80;82.02;98997.31;3196283;41;3602327;-58
2021/07/19 02:04:36;;;;;;;;;29.50;27.00;;;;;21.67;82.33;99003.44;3195003;41;3598116;-58
2021/07/19 02:07:07;;;;;;;;;27.00;26.00;;;;;21.66;82.45;99002.56;3206196;41;3600200;-58
2021/07/19 02:09:35;;;;;;;;;29.00;29.00;;;;;21.37;84.06;99007.84;3184717;41;3598094;-58
2021/07/19 02:12:05;;;;;;;;;32.00;27.33;;;;;21.64;82.26;99014.69;3189653;41;3600481;-59
2021/07/19 02:14:33;;;;;;;;;32.33;29.67;;;;;21.46;82.87;99017.75;3192591;41;3583511;-58
2021/07/19 02:17:02;;;;;;;;;30.67;29.00;;;;;21.34;84.71;99019.16;3182592;41;3582568;-58
2021/07/19 02:19:31;;;;;;;;;33.67;30.00;;;;;21.31;85.01;99027.72;3197032;41;3578334;-58
2021/07/19 02:21:59;;;;;;;;;29.33;27.33;;;;;21.27;84.57;99030.81;3194989;41;3596029;-58
2021/07/19 02:24:28;;;;;;;;;27.33;27.33;;;;;20.96;87.52;99038.13;3184185;41;3582489;-58
2021/07/19 02:26:57;;;;;;;;;29.00;29.00;;;;;20.78;87.73;99047.38;3202029;41;3591863;-58
2021/07/19 02:29:26;;;;;;;;;31.00;30.00;;;;;21.12;87.29;99059.88;3194799;41;3574163;-58
2021/07/19 02:31:54;;;;;;;;;30.67;29.33;;;;;21.04;87.16;99068.13;3183880;41;3574210;-59
2021/07/19 02:34:23;;;;;;;;;32.67;31.00;;;;;21.23;86.42;99067.66;3186918;41;3577304;-59
2021/07/19 02:36:52;;;;;;;;;30.00;29.00;;;;;21.03;87.14;99060.94;3195705;41;3579396;-59
2021/07/19 02:39:21;;;;;;;;;32.00;28.00;;;;;20.93;87.46;99054.81;3181762;41;2849305;-58
2021/07/19 02:41:51;;;;;;;;;31.00;27.00;;;;;21.00;88.02;99072.22;3206512;41;3602274;-59
2021/07/19 02:44:20;;;;;;;;;34.33;30.00;;;;;20.82;88.17;99070.56;3196683;41;3574152;-58
2021/07/19 02:46:51;;;;;;;;;31.67;29.67;;;;;21.06;88.19;99066.03;3190176;40;3579367;-57
2021/07/19 02:49:19;;;;;;;;;29.00;29.00;;;;;21.03;88.64;99071.84;3190627;41;3588749;-59
2021/07/19 02:51:52;;;;;;;;;27.67;24.67;;;;;21.13;88.06;99075.22;3194185;41;2845033;-58
2021/07/19 02:54:22;;;;;;;;;32.67;30.00;;;;;21.09;88.15;99087.53;3210402;41;3591886;-58
2021/07/19 02:56:52;;;;;;;;;33.33;31.67;;;;;20.93;89.30;99101.22;3211066;41;3590822;-58
2021/07/19 02:59:22;;;;;;;;;35.00;30.33;;;;;20.67;90.55;99105.06;3195234;41;3601238;-58
2021/07/19 03:01:53;;;;;;;;;35.00;30.00;;;;;20.52;90.87;99112.22;3187987;41;3584962;-58
2021/07/19 03:04:26;;;;;;;;;31.33;30.00;;;;;20.66;91.34;99108.78;3193144;41;3585629;-58
2021/07/19 03:06:59;;;;;;;;;31.67;29.67;;;;;20.76;90.86;99112.19;3187692;41;3581431;-58
2021/07/19 03:09:33;;;;;;;;;31.00;29.67;;;;;20.80;89.65;99120.88;3195064;41;3582826;-58
2021/07/19 03:12:02;;;;;;;;;30.33;30.00;;;;;20.65;91.42;99119.91;3187928;41;3574199;-58
2021/07/19 03:14:33;;;;;;;;;29.67;28.33;;;;;21.03;89.41;99115.53;3188874;41;3586663;-58
2021/07/19 03:17:02;;;;;;;;;32.00;31.00;;;;;21.18;88.68;99108.31;3187434;41;3588329;-58
2021/07/19 03:19:33;;;;;;;;;29.00;29.00;;;;;21.15;88.18;99114.13;3195013;41;3597122;-58
2021/07/19 03:22:01;;;;;;;;;26.33;24.67;;;;;21.17;88.39;99119.38;3188342;41;3598157;-58
2021/07/19 03:24:30;;;;;;;;;33.00;28.67;;;;;21.06;88.01;99104.25;3187286;41;3596029;-58
2021/07/19 03:26:58;;;;;;;;;27.33;26.67;;;;;21.01;89.16;99114.84;3187788;41;3596104;-58
2021/07/19 03:29:28;;;;;;;;;33.00;28.67;;;;;21.09;88.65;99103.91;3188237;41;3573110;-59
2021/07/19 03:31:57;;;;;;;;;29.00;29.00;;;;;21.25;87.63;99111.19;3187573;41;3574170;-58
2021/07/19 03:34:26;;;;;;;;;33.33;27.33;;;;;21.27;87.21;99100.91;3196584;41;3606755;-59
2021/07/19 03:36:55;;;;;;;;;29.67;29.00;;;;;21.08;88.98;99104.94;3187309;41;3591868;-59
2021/07/19 03:39:24;;;;;;;;;34.00;30.00;;;;;21.03;89.30;99110.06;3193778;41;3596041;-59
2021/07/19 03:41:53;;;;;;;;;27.33;25.00;;;;;21.45;87.38;99108.91;3195161;41;3590834;-58
2021/07/19 03:44:22;;;;;;;;;29.33;29.33;;;;;21.45;87.23;99103.44;3196299;41;3568971;-58
2021/07/19 03:46:50;;;;;;;;;30.67;29.67;;;;;21.57;86.82;99102.00;3196759;40;3584591;-59
2021/07/19 03:49:19;;;;;;;;;33.67;30.00;;;;;21.46;87.25;99091.50;3188213;41;3575226;-59
2021/07/19 03:51:49;;;;;;;;;31.00;30.00;;;;;21.66;86.52;99090.00;3192648;41;3602300;-59
2021/07/19 03:54:18;;;;;;;;;33.50;26.75;;;;;21.79;85.36;99096.75;3195261;41;3614851;-58
2021/07/19 03:56:46;;;;;;;;;32.33;29.67;;;;;21.72;85.58;99103.97;3211731;41;3586651;-58
2021/07/19 03:59:19;;;;;;;;;32.00;28.67;;;;;21.81;85.48;99108.34;3192820;41;3607761;-58
2021/07/19 04:01:48;;;;;;;;;31.67;28.33;;;;;21.78;86.18;99111.47;3201902;41;3589062;-59
2021/07/19 04:04:29;;;;;;;;;28.67;27.67;;;;;21.83;85.93;99114.50;3195408;41;3596077;-59
2021/07/19 04:07:02;;;;;;;;;28.67;28.67;;;;;22.05;85.09;99113.66;3192703;41;3584623;-59
2021/07/19 04:09:31;;;;;;;;;28.33;25.67;;;;;22.07;84.76;99106.13;3194944;41;3598117;-59
2021/07/19 04:12:01;;;;;;;;;26.00;26.00;;;;;22.17;84.80;99114.09;3195733;41;3600212;-59
2021/07/19 04:14:30;;;;;;;;;30.00;27.00;;;;;22.10;84.56;99113.94;3184155;41;3593990;-59
2021/07/19 04:16:58;;;;;;;;;28.33;26.67;;;;;22.18;84.03;99115.78;3186964;41;3602332;-58
2021/07/19 04:19:27;;;;;;;;;29.33;27.67;;;;;22.00;85.27;99112.50;3195594;41;3598128;-58
2021/07/19 04:21:56;;;;;;;;;27.67;26.67;;;;;22.07;85.25;99103.38;3195944;41;3593947;-59
2021/07/19 04:24:25;;;;;;;;;28.25;28.25;;;;;21.99;85.20;99103.44;3195804;41;3604379;-59
2021/07/19 04:26:54;;;;;;;;;31.67;28.33;;;;;22.05;85.05;99105.44;3211988;41;3595000;-59
2021/07/19 04:29:23;;;;;;;;;27.67;27.67;;;;;22.04;85.18;99109.22;3187000;41;3586656;-59
2021/07/19 04:31:56;;;;;;;;;30.67;30.67;;;;;21.96;86.04;99122.94;3199031;41;3574179;-59
2021/07/19 04:34:29;;;;;;;;;32.00;29.67;;;;;21.89;86.82;99127.44;3195918;41;3584868;-58
2021/07/19 04:37:05;;;;;;;;;31.67;28.00;;;;;21.79;87.60;99138.59;3196203;41;3606450;-59
2021/07/19 04:39:37;;;;;;;;;29.00;29.00;;;;;21.70;88.77;99137.78;3195080;41;3584612;-59
2021/07/19 04:42:07;;;;;;;;;31.75;29.50;;;;;21.92;87.05;99140.72;3195814;41;3601326;-59
2021/07/19 04:44:37;;;;;;;;;31.67;28.00;;;;;21.96;86.41;99143.94;3208999;41;3599183;-58
2021/07/19 04:47:05;;;;;;;;;32.00;28.67;;;;;22.07;85.52;99152.59;3210208;41;3585914;-59
2021/07/19 04:49:38;;;;;;;;;31.33;30.33;;;;;22.07;86.53;99163.53;3195626;41;3583553;-59
2021/07/19 04:52:07;;;;;;;;;30.33;29.00;;;;;22.05;86.26;99173.78;3192872;41;3595094;-59
2021/07/19 04:54:38;;;;;;;;;33.33;28.67;;;;;22.11;86.08;99177.69;3195984;41;3614795;-59
2021/07/19 04:57:12;;;;;;;;;28.67;27.00;;;;;22.00;85.48;99173.47;3183509;41;3597090;-59
2021/07/19 04:59:44;;;;;;;;;32.33;29.67;;;;;22.09;86.16;99171.53;3187066;41;3580429;-59
2021/07/19 05:02:21;;;;;;;;;30.67;29.33;;;;;22.06;86.70;99185.56;3186562;41;3594968;-59
2021/07/19 05:04:53;;;;;;;;;26.67;25.67;;;;;22.13;86.64;99195.59;3195480;41;3596076;-59
2021/07/19 05:07:24;;;;;;;;;28.67;27.33;;;;;22.20;86.22;99192.19;3195799;41;3602299;-59
2021/07/19 05:09:53;;;;;;;;;30.00;30.00;;;;;22.42;86.24;99194.06;3185906;41;3598118;-59
2021/07/19 05:12:22;;;;;;;;;32.25;30.00;;;;;22.42;84.71;99193.22;3187003;41;3603332;-59
2021/07/19 05:14:51;;;;;;;;;29.33;28.00;;;;;22.16;86.53;99199.03;3195758;41;3566879;-59
2021/07/19 05:17:20;;;;;;;;;18.00;18.00;;;;;22.05;88.35;99198.41;3195877;41;2477349;-59
2021/07/19 05:19:49;;;;;;;;;27.33;25.33;;;;;22.02;87.76;99197.91;3203315;41;3572140;-59
2021/07/19 05:22:18;;;;;;;;;31.25;29.50;;;;;22.02;86.75;99201.50;3195559;41;3606462;-59
2021/07/19 05:24:46;;;;;;;;;32.00;28.67;;;;;22.30;87.27;99201.00;3211565;41;3586952;-59
2021/07/19 05:27:15;;;;;;;;;32.00;30.00;;;;;22.56;86.13;99186.94;3194233;41;3596074;-59
2021/07/19 05:29:44;;;;;;;;;34.00;31.00;;;;;22.47;85.96;99186.16;3188644;41;3579403;-59
2021/07/19 05:32:12;;;;;;;;;29.00;27.00;;;;;22.95;82.97;99180.44;3198205;41;3596026;-59
2021/07/19 05:34:40;;;;;;;;;34.33;32.00;;;;;22.89;82.73;99184.78;3201726;41;3581519;-60
2021/07/19 05:37:08;;;;;;;;;24.33;23.33;;;;;22.81;84.29;99184.84;3196185;41;3569054;-59
2021/07/19 05:39:35;;;;;;;;;29.67;29.67;;;;;22.94;82.29;99187.81;3192232;41;3584580;-59
2021/07/19 05:42:04;;;;;;;;;31.00;27.00;;;;;22.98;82.94;99189.16;3195291;41;3590869;-59
2021/07/19 05:44:31;;;;;;;;;25.33;24.67;;;;;22.70;83.56;99186.16;3198513;41;3585626;-58
2021/07/19 05:47:01;;;;;;;;;28.00;27.25;;;;;23.03;82.51;99196.81;3195337;41;3600197;-59
2021/07/19 05:49:30;;;;;;;;;28.33;24.33;;;;;22.72;83.61;99189.56;3211282;41;3574176;-59
2021/07/19 05:51:58;;;;;;;;;30.67;30.67;;;;;22.46;84.89;99189.94;3196041;41;3590376;-59
2021/07/19 05:54:26;;;;;;;;;30.75;27.50;;;;;22.77;83.74;99191.72;3195458;41;3603456;-59
2021/07/19 05:56:55;;;;;;;;;27.50;25.75;;;;;23.05;81.34;99191.16;3212890;41;3589780;-58
2021/07/19 05:59:23;;;;;;;;;26.00;24.00;;;;;23.05;82.17;99182.94;3211452;41;3579376;-59
2021/07/19 06:01:51;;;;;;;;;25.67;24.00;;;;;23.28;80.54;99178.25;3195285;41;3581451;-58
2021/07/19 06:04:19;;;;;;;;;27.00;24.33;;;;;23.23;81.03;99170.56;3195394;41;3580441;-59
2021/07/19 06:06:47;;;;;;;;;29.00;27.00;;;;;23.27;81.55;99168.31;3195781;41;3587704;-58
2021/07/19 06:09:16;;;;;;;;;29.50;26.75;;;;;23.38;81.00;99156.88;3195013;41;3600221;-59
2021/07/19 06:11:44;;;;;;;;;23.33;22.00;;;;;23.25;82.37;99148.50;3211094;41;3581500;-60
2021/07/19 06:14:12;;;;;;;;;32.00;27.00;;;;;23.30;81.83;99154.25;3194010;41;3594995;-59
2021/07/19 06:16:41;;;;;;;;;32.50;26.75;;;;;23.39;80.27;99144.88;3193370;41;3606442;-58
2021/07/19 06:19:09;;;;;;;;;28.67;25.67;;;;;23.27;81.85;99157.34;3204432;41;3591938;-60
2021/07/19 06:21:38;;;;;;;;;33.75;28.25;;;;;23.25;82.42;99153.97;3193125;41;3605408;-60
2021/07/19 06:24:06;;;;;;;;;27.00;24.67;;;;;23.32;82.10;99152.16;3211270;41;3597091;-59
2021/07/19 06:26:34;;;;;;;;;26.33;25.67;;;;;23.41;80.99;99144.69;3197855;41;3587704;-59
2021/07/19 06:29:02;;;;;;;;;30.33;27.33;;;;;23.30;81.59;99137.81;3194839;41;3585622;-59
2021/07/19 06:31:30;;;;;;;;;31.33;29.00;;;;;23.23;81.24;99136.84;3194609;41;3603400;-59
2021/07/19 06:33:58;;;;;;;;;28.00;24.00;;;;;23.18;81.30;99139.31;3194599;41;3576238;-59
2021/07/19 06:36:27;;;;;;;;;23.33;23.33;;;;;23.19;81.52;99136.38;3195223;41;3592933;-58
2021/07/19 06:38:55;;;;;;;;;26.33;26.33;;;;;23.25;81.02;99140.28;3194772;41;3599234;-58
2021/07/19 06:41:23;;;;;;;;;27.00;23.67;;;;;23.40;80.21;99148.47;3193548;41;3582501;-59
2021/07/19 06:43:51;;;;;;;;;29.67;26.67;;;;;23.33;79.95;99166.69;3195349;41;3594991;-58
2021/07/19 06:46:19;;;;;;;;;25.00;24.67;;;;;23.45;79.52;99176.13;3195542;41;3580975;-60
2021/07/19 06:48:47;;;;;;;;;33.33;32.33;;;;;23.45;80.24;99182.47;3192600;41;3581526;-61
2021/07/19 06:51:15;;;;;;;;;36.67;34.00;;;;;23.53;79.63;99189.72;3195637;41;3606454;-61
2021/07/19 06:53:43;;;;;;;;;29.25;24.50;;;;;23.50;81.00;99195.59;3195454;41;3608559;-61
2021/07/19 06:56:12;;;;;;;;;31.25;26.75;;;;;23.58;79.91;99202.88;3211095;41;3602276;-61
2021/07/19 06:58:40;;;;;;;;;24.67;24.67;;;;;23.58;79.97;99211.94;3210957;41;3589820;-62
2021/07/19 07:01:08;;;;;;;;;26.00;24.00;;;;;23.70;78.25;99212.31;3193755;41;3585629;-62
2021/07/19 07:03:37;;;;;;;;;28.25;26.75;;;;;23.76;77.24;99219.81;3194709;41;3600196;-61
2021/07/19 07:06:27;;;;;;;;;28.50;27.00;;;;;23.38;78.58;99222.63;3210023;41;3596602;-61
2021/07/19 07:08:57;;;;;;;;;30.00;27.00;;;;;23.71;78.77;99224.97;3210981;41;3594267;-61
2021/07/19 07:11:27;;;;;;;;;29.00;25.00;;;;;24.03;76.13;99215.50;3185953;41;3586659;-61
2021/07/19 07:13:57;;;;;;;;;24.00;23.00;;;;;23.91;76.95;99219.81;3186201;41;3580417;-61
2021/07/19 07:16:25;;;;;;;;;27.33;26.33;;;;;23.75;76.69;99226.34;3189943;41;3593987;-60
2021/07/19 07:18:55;;;;;;;;;23.00;22.67;;;;;23.62;77.69;99226.13;3193525;41;3576247;-61
2021/07/19 07:21:24;;;;;;;;;30.00;24.00;;;;;23.97;75.91;99232.72;3211554;41;3596026;-61
2021/07/19 07:23:54;;;;;;;;;25.00;23.33;;;;;23.72;77.77;99228.59;3210986;41;3581696;-62
2021/07/19 07:26:22;;;;;;;;;25.33;22.67;;;;;23.79;78.03;99235.88;3196955;41;3575228;-61
2021/07/19 07:28:51;;;;;;;;;30.75;27.25;;;;;23.87;78.84;99233.03;3196060;41;3602283;-62
2021/07/19 07:31:19;;;;;;;;;28.33;26.67;;;;;23.75;80.00;99231.81;3212106;41;3594181;-61
2021/07/19 07:33:47;;;;;;;;;27.00;24.67;;;;;23.69;77.54;99240.75;3196273;41;3587690;-61
2021/07/19 07:36:16;;;;;;;;;31.75;29.25;;;;;23.84;77.37;99241.63;3196002;41;3600450;-61
2021/07/19 07:38:43;;;;;;;;;36.67;31.67;;;;;24.02;79.03;99232.16;3209122;41;3587700;-62
2021/07/19 07:41:12;;;;;;;;;27.25;26.00;;;;;23.96;77.13;99235.66;3196181;41;3599151;-62
2021/07/19 07:43:40;;;;;;;;;28.00;25.67;;;;;23.92;76.57;99235.19;3211894;41;3587690;-62
2021/07/19 07:46:09;;;;;;;;;26.67;25.00;;;;;23.88;77.87;99245.72;3195867;41;3582493;-62
2021/07/19 07:48:38;;;;;;;;;28.33;27.67;;;;;23.98;75.93;99239.06;3187522;41;3598121;-61
2021/07/19 07:51:08;;;;;;;;;27.67;27.33;;;;;24.07;75.23;99240.66;3196057;41;3593955;-61
2021/07/19 07:53:37;;;;;;;;;26.75;25.00;;;;;24.27;76.37;99241.72;3196090;41;3598457;-62
2021/07/19 07:56:06;;;;;;;;;30.25;27.00;;;;;24.29;75.49;99247.88;3211744;41;3596030;-60
2021/07/19 07:58:35;;;;;;;;;26.00;24.00;;;;;24.29;75.13;99241.53;3207169;41;3579356;-62
2021/07/19 08:01:03;;;;;;;;;29.00;25.67;;;;;24.11;76.22;99239.22;3210982;41;3600525;-62
2021/07/19 08:03:31;;;;;;;;;25.00;23.33;;;;;24.26;75.15;99245.53;3196881;41;3580662;-61
2021/07/19 08:06:00;;;;;;;;;26.25;25.25;;;;;24.58;76.69;99239.78;3196876;41;3594185;-62
2021/07/19 08:08:28;;;;;;;;;25.00;24.75;;;;;24.88;75.12;99245.94;3212361;41;3596049;-62
2021/07/19 08:10:56;;;;;;;;;25.33;22.00;;;;;24.94;72.71;99242.44;3213083;41;3568939;-62
2021/07/19 08:13:24;;;;;;;;;32.00;25.00;;;;;24.70;72.39;99249.19;3197244;41;3612664;-62
2021/07/19 08:15:52;;;;;;;;;27.33;25.67;;;;;24.63;73.28;99254.59;3196907;41;3600181;-62
2021/07/19 08:18:21;;;;;;;;;40.75;29.25;;;;;24.93;73.16;99248.97;3199886;41;4389848;-62
2021/07/19 08:20:49;;;;;;;;;28.67;27.00;;;;;24.89;74.08;99247.66;3216804;41;3589775;-62
2021/07/19 08:23:17;;;;;;;;;28.33;26.00;;;;;24.59;73.68;99250.53;3197438;41;3585852;-62
2021/07/19 08:25:45;;;;;;;;;28.67;27.00;;;;;24.42;73.01;99246.34;3197458;41;3582758;-62
2021/07/19 08:28:13;;;;;;;;;28.33;25.00;;;;;24.51;73.50;99256.16;3198258;41;3587697;-62
2021/07/19 08:30:41;;;;;;;;;33.67;30.00;;;;;24.35;73.79;99256.38;3197511;41;3568223;-62
2021/07/19 08:33:09;;;;;;;;;25.33;24.33;;;;;24.24;74.13;99261.31;3199534;41;3593987;-62
2021/07/19 08:35:38;;;;;;;;;31.50;27.50;;;;;24.42;74.37;99254.56;3195895;41;3608610;-61
2021/07/19 08:38:06;;;;;;;;;57.33;40.33;;;;;24.73;72.37;99260.63;3212839;40;1911739;-62
2021/07/19 08:40:37;;;;;;;;;27.67;25.00;;;;;24.63;74.60;99259.25;3215967;41;1900380;-62
2021/07/19 08:43:06;;;;;;;;;23.33;23.00;;;;;24.60;73.24;99257.75;3212440;41;3580378;-62
2021/07/19 08:45:34;;;;;;;;;25.67;24.00;;;;;24.34;72.62;99255.53;3197134;41;3583561;-62
2021/07/19 08:48:03;;;;;;;;;25.67;24.00;;;;;24.48;73.45;99260.13;3196890;41;3585591;-62
2021/07/19 08:50:32;;;;;;;;;25.67;21.67;;;;;24.67;72.80;99257.78;3196535;41;3575234;-61
2021/07/19 08:53:00;;;;;;;;;25.33;23.67;;;;;24.51;73.06;99261.66;3196796;41;3573143;-61
2021/07/19 08:55:30;;;;;;;;;27.33;24.67;;;;;24.41;71.73;99258.34;3199669;41;3586658;-62
2021/07/19 08:58:01;;;;;;;;;33.00;30.00;;;;;24.44;75.25;99257.97;3186667;41;3598149;-62
2021/07/19 09:00:30;;;;;;;;;27.50;26.50;;;;;24.39;74.37;99252.22;3196943;41;3600462;-61
2021/07/19 09:02:58;;;;;;;;;27.67;27.00;;;;;24.35;73.32;99261.88;3212748;41;3589788;-62
2021/07/19 09:05:27;;;;;;;;;28.75;26.75;;;;;24.41;74.75;99267.44;3196283;41;3595000;-62
2021/07/19 09:07:56;;;;;;;;;33.33;27.67;;;;;24.46;76.42;99269.63;3203524;41;3608537;-62
2021/07/19 09:10:27;;;;;;;;;28.00;27.33;;;;;24.47;75.02;99274.91;3195590;41;3594996;-62
2021/07/19 09:13:00;;;;;;;;;44.00;32.00;;;;;24.62;77.13;99271.25;3197459;41;1901287;-62
2021/07/19 09:15:37;;;;;;;;;26.33;25.67;;;;;24.53;75.03;99267.78;3204217;41;3596026;-62
2021/07/19 09:18:06;;;;;;;;;28.67;27.00;;;;;24.54;73.23;99264.03;3197958;41;3594989;-62
2021/07/19 09:20:39;;;;;;;;;31.50;29.25;;;;;24.65;75.68;99269.00;3199660;41;3606487;-61
2021/07/19 09:23:11;;;;;;;;;28.25;27.50;;;;;24.69;74.38;99273.03;3212313;41;3604542;-62
2021/07/19 09:25:39;;;;;;;;;26.00;24.33;;;;;25.14;73.08;99267.31;3204513;41;3589875;-62
2021/07/19 09:28:12;;;;;;;;;23.00;22.33;;;;;25.21;73.23;99272.91;3194588;40;3591950;-62
2021/07/19 09:30:44;;;;;;;;;30.00;28.67;;;;;24.70;73.77;99276.66;3203896;41;3591874;-62
2021/07/19 09:33:17;;;;;;;;;31.33;29.33;;;;;24.89;74.84;99272.38;3196600;41;3578326;-62
2021/07/19 09:35:50;;;;;;;;;30.00;27.50;;;;;24.83;73.84;99275.91;3196671;41;3610710;-61
2021/07/19 09:38:19;;;;;;;;;30.00;27.00;;;;;24.80;72.66;99276.28;3212472;41;3600212;-62
2021/07/19 09:40:57;;;;;;;;;25.25;24.50;;;;;24.92;74.15;99272.84;3196663;41;3598106;-62
2021/07/19 09:43:30;;;;;;;;;27.33;27.33;;;;;24.80;74.91;99265.31;3212434;41;3594996;-63
2021/07/19 09:46:03;;;;;;;;;26.33;23.00;;;;;24.99;75.00;99259.16;3193228;41;3588755;-62
2021/07/19 09:48:32;;;;;;;;;26.00;22.33;;;;;25.33;72.74;99261.16;3196832;41;3580405;-62
2021/07/19 09:51:01;;;;;;;;;24.67;23.00;;;;;25.28;73.14;99265.56;3196299;41;3588782;-62
2021/07/19 09:53:43;;;;;;;;;26.00;24.33;;;;;25.07;74.17;99264.53;3196213;41;3577586;-61
2021/07/19 09:56:16;;;;;;;;;25.25;24.50;;;;;25.06;74.42;99265.56;3186707;41;3602267;-60
2021/07/19 09:58:49;;;;;;;;;25.67;24.00;;;;;25.09;74.80;99259.69;3212120;41;3583515;-62
2021/07/19 10:01:30;;;;;;;;;32.00;26.75;;;;;24.87;75.11;99266.22;3196926;41;3609575;-62
2021/07/19 10:04:17;;;;;;;;;32.50;25.00;;;;;24.97;74.16;99262.09;3212173;41;4366835;-62
2021/07/19 10:06:50;;;;;;;;;26.67;25.33;;;;;24.68;75.80;99268.59;3211311;41;3591863;-63
2021/07/19 10:09:20;;;;;;;;;25.00;22.67;;;;;24.83;75.99;99267.66;3196643;41;3585597;-62
2021/07/19 10:11:55;;;;;;;;;25.67;22.67;;;;;25.08;75.68;99257.13;3195973;41;3585641;-62
2021/07/19 10:14:33;;;;;;;;;23.33;22.00;;;;;24.55;76.07;99262.97;3189482;41;3587963;-63
2021/07/19 10:17:04;;;;;;;;;24.00;22.50;;;;;24.70;75.83;99260.19;3191937;41;2847125;-62
2021/07/19 10:19:35;;;;;;;;;22.00;22.00;;;;;24.62;75.15;99266.63;3195677;41;3557481;-62
2021/07/19 10:22:03;;;;;;;;;23.67;23.67;;;;;24.85;73.78;99262.81;3191341;41;3580413;-62
2021/07/19 10:24:32;;;;;;;;;21.33;21.33;;;;;25.03;74.33;99271.44;3195249;41;3571038;-62
2021/07/19 10:27:00;;;;;;;;;20.67;20.33;;;;;25.07;73.37;99260.94;3187459;41;3571039;-62
2021/07/19 10:29:31;;;;;;;;;20.00;17.00;;;;;24.84;72.78;99261.16;3193439;41;2836825;-62
2021/07/19 10:31:59;;;;;;;;;14.00;14.00;;;;;24.94;71.84;99261.66;3208183;41;2802326;-62
2021/07/19 10:34:27;;;;;;;;;18.67;16.67;;;;;24.69;71.21;99269.44;3187338;41;3568963;-62
2021/07/19 10:37:01;;;;;;;;;20.00;18.67;;;;;24.83;70.99;99259.44;3186875;41;3579587;-62
2021/07/19 10:39:39;;;;;;;;;14.50;14.50;;;;;25.05;69.57;99268.50;3184407;41;2807527;-62
2021/07/19 10:42:11;;;;;;;;;15.33;15.33;;;;;24.76;71.01;99264.88;3184451;41;3546060;-62
2021/07/19 10:44:41;;;;;;;;;20.33;15.67;;;;;25.40;70.49;99261.19;3192928;41;2485669;-62
2021/07/19 10:47:26;;;;;;;;;17.00;17.00;;;;;25.28;70.73;99269.16;3209915;41;2833750;-62
2021/07/19 10:50:00;;;;;;;;;16.00;16.00;;;;;25.00;69.56;99266.34;3208795;41;2817932;-61
2021/07/19 10:52:37;;;;;;;;;21.67;21.67;;;;;25.23;70.57;99270.81;3196865;41;3585641;-63
2021/07/19 10:55:09;;;;;;;;;20.33;18.33;;;;;25.15;70.54;99264.41;3193654;41;2839893;-63
2021/07/19 10:57:41;;;;;;;;;19.00;18.33;;;;;25.13;70.65;99263.72;3208153;41;3565831;-49
2021/07/19 11:00:14;;;;;;;;;17.33;17.33;;;;;25.03;70.90;99265.09;3192680;41;3564781;-50
2021/07/19 11:02:45;;;;;;;;;22.00;21.00;;;;;24.94;71.57;99261.66;3205918;41;2830443;-50
2021/07/19 11:05:18;;;;;;;;;18.67;18.67;;;;;24.72;72.31;99269.03;3197702;41;3571122;-49
2021/07/19 11:07:46;;;;;;;;;21.33;21.00;;;;;24.63;72.60;99271.06;3196953;41;3581447;-48
2021/07/19 11:10:20;;;;;;;;;21.33;21.33;;;;;24.48;72.41;99270.28;3198361;41;3572111;-52
2021/07/19 11:12:53;;;;;;;;;22.00;20.67;;;;;24.39;73.22;99263.19;3195508;41;3574175;-51
2021/07/19 11:15:33;;;;;;;;;21.33;20.00;;;;;24.63;72.89;99270.22;3197421;41;3575252;-49